sensor_id;sensor_type;location;lat;lon;timestamp;temperature;humidity
10245;DHT22;5167;52.164;10.530;2022-09-03T00:00:23;19.80;5.00
10245;DHT22;5167;52.164;10.530;2022-09-03T00:03:23;19.70;5.00
10245;DHT22;5167;52.164;10.530;2022-09-03T00:05:56;19.70;5.00
10245;DHT22;5167;52.164;10.530;2022-09-03T00:08:53;19.60;5.00
10245;DHT22;5167;52.164;10.530;2022-09-03T00:14:09;19.60;5.00
10245;DHT22;5167;52.164;10.530;2022-09-03T00:16:58;19.60;5.00
10245;DHT22;5167;52.164;10.530;2022-09-03T00:19:35;19.60;5.00
10245;DHT22;5167;52.164;10.530;2022-09-03T00:22:44;19.50;5.00
10245;DHT22;5167;52.164;10.530;2022-09-03T00:25:14;19.60;5.00
10245;DHT22;5167;52.164;10.530;2022-09-03T00:27:43;19.50;5.00
10245;DHT22;5167;52.164;10.530;2022-09-03T00:30:15;19.50;5.00
10245;DHT22;5167;52.164;10.530;2022-09-03T00:35:27;19.40;5.00
10245;DHT22;5167;52.164;10.530;2022-09-03T00:37:56;19.40;5.00
10245;DHT22;5167;52.164;10.530;2022-09-03T00:52:00;19.20;5.00
10245;DHT22;5167;52.164;10.530;2022-09-03T00:55:04;19.20;5.00
10245;DHT22;5167;52.164;10.530;2022-09-03T00:57:42;19.10;5.00
10245;DHT22;5167;52.164;10.530;2022-09-03T01:00:15;19.10;5.00
10245;DHT22;5167;52.164;10.530;2022-09-03T01:03:00;19.10;5.00
10245;DHT22;5167;52.164;10.530;2022-09-03T01:13:33;19.00;5.00
10245;DHT22;5167;52.164;10.530;2022-09-03T01:16:33;19.00;5.00
10245;DHT22;5167;52.164;10.530;2022-09-03T01:27:08;19.00;5.00
10245;DHT22;5167;52.164;10.530;2022-09-03T01:29:45;18.90;5.00
10245;DHT22;5167;52.164;10.530;2022-09-03T01:35:09;18.80;5.00
10245;DHT22;5167;52.164;10.530;2022-09-03T01:48:05;18.50;5.00
10245;DHT22;5167;52.164;10.530;2022-09-03T01:50:54;18.50;5.00
10245;DHT22;5167;52.164;10.530;2022-09-03T01:58:51;18.40;5.00
10245;DHT22;5167;52.164;10.530;2022-09-03T02:01:40;18.40;5.00
10245;DHT22;5167;52.164;10.530;2022-09-03T02:04:24;18.40;5.00
10245;DHT22;5167;52.164;10.530;2022-09-03T02:06:52;18.40;5.00
10245;DHT22;5167;52.164;10.530;2022-09-03T02:09:19;18.30;5.00
10245;DHT22;5167;52.164;10.530;2022-09-03T02:11:52;18.30;5.00
10245;DHT22;5167;52.164;10.530;2022-09-03T02:14:19;18.30;5.00
10245;DHT22;5167;52.164;10.530;2022-09-03T02:16:45;18.20;5.00
10245;DHT22;5167;52.164;10.530;2022-09-03T02:19:14;18.20;5.00
10245;DHT22;5167;52.164;10.530;2022-09-03T02:21:48;18.30;5.00
10245;DHT22;5167;52.164;10.530;2022-09-03T02:24:15;18.20;5.00
10245;DHT22;5167;52.164;10.530;2022-09-03T02:26:42;18.10;5.00
10245;DHT22;5167;52.164;10.530;2022-09-03T02:29:07;18.10;5.00
10245;DHT22;5167;52.164;10.530;2022-09-03T02:31:33;18.10;5.00
10245;DHT22;5167;52.164;10.530;2022-09-03T02:33:59;18.10;5.00
10245;DHT22;5167;52.164;10.530;2022-09-03T02:36:32;18.10;5.00
10245;DHT22;5167;52.164;10.530;2022-09-03T02:39:02;18.00;5.00
10245;DHT22;5167;52.164;10.530;2022-09-03T02:41:27;18.00;5.00
10245;DHT22;5167;52.164;10.530;2022-09-03T02:44:20;17.90;5.00
10245;DHT22;5167;52.164;10.530;2022-09-03T02:46:59;18.00;5.00
10245;DHT22;5167;52.164;10.530;2022-09-03T02:49:25;17.90;5.00
10245;DHT22;5167;52.164;10.530;2022-09-03T02:51:56;17.90;5.00
10245;DHT22;5167;52.164;10.530;2022-09-03T02:54:21;17.80;5.00
10245;DHT22;5167;52.164;10.530;2022-09-03T02:56:47;17.80;5.00
10245;DHT22;5167;52.164;10.530;2022-09-03T02:59:14;17.80;5.00
10245;DHT22;5167;52.164;10.530;2022-09-03T03:01:42;17.70;5.00
10245;DHT22;5167;52.164;10.530;2022-09-03T03:04:08;17.70;5.00
10245;DHT22;5167;52.164;10.530;2022-09-03T03:06:33;17.70;5.00
10245;DHT22;5167;52.164;10.530;2022-09-03T03:08:59;17.60;5.00
10245;DHT22;5167;52.164;10.530;2022-09-03T03:11:28;17.60;5.00
10245;DHT22;5167;52.164;10.530;2022-09-03T03:13:54;17.60;5.00
10245;DHT22;5167;52.164;10.530;2022-09-03T03:16:20;17.60;5.00
10245;DHT22;5167;52.164;10.530;2022-09-03T03:18:46;17.50;5.00
10245;DHT22;5167;52.164;10.530;2022-09-03T03:21:14;17.50;5.00
10245;DHT22;5167;52.164;10.530;2022-09-03T03:23:40;17.50;5.00
10245;DHT22;5167;52.164;10.530;2022-09-03T03:26:12;17.50;5.00
10245;DHT22;5167;52.164;10.530;2022-09-03T03:28:38;17.50;5.00
10245;DHT22;5167;52.164;10.530;2022-09-03T03:31:16;17.50;5.00
10245;DHT22;5167;52.164;10.530;2022-09-03T03:33:43;17.40;5.00
10245;DHT22;5167;52.164;10.530;2022-09-03T03:36:11;17.40;5.00
10245;DHT22;5167;52.164;10.530;2022-09-03T03:38:38;17.30;5.00
10245;DHT22;5167;52.164;10.530;2022-09-03T03:41:17;17.30;5.00
10245;DHT22;5167;52.164;10.530;2022-09-03T03:43:44;17.30;5.00
10245;DHT22;5167;52.164;10.530;2022-09-03T03:46:10;17.20;5.00
10245;DHT22;5167;52.164;10.530;2022-09-03T03:48:36;17.20;5.00
10245;DHT22;5167;52.164;10.530;2022-09-03T03:51:05;17.10;5.00
10245;DHT22;5167;52.164;10.530;2022-09-03T03:53:32;17.10;5.00
10245;DHT22;5167;52.164;10.530;2022-09-03T03:56:00;17.10;5.00
10245;DHT22;5167;52.164;10.530;2022-09-03T03:58:30;17.00;5.00
10245;DHT22;5167;52.164;10.530;2022-09-03T04:01:11;17.00;5.00
10245;DHT22;5167;52.164;10.530;2022-09-03T04:03:37;16.90;5.00
10245;DHT22;5167;52.164;10.530;2022-09-03T04:06:04;16.90;5.00
10245;DHT22;5167;52.164;10.530;2022-09-03T04:08:33;16.90;5.00
10245;DHT22;5167;52.164;10.530;2022-09-03T04:11:00;16.80;5.00
10245;DHT22;5167;52.164;10.530;2022-09-03T04:13:30;16.70;5.00
10245;DHT22;5167;52.164;10.530;2022-09-03T04:16:00;16.70;5.00
10245;DHT22;5167;52.164;10.530;2022-09-03T04:18:26;16.60;5.00
10245;DHT22;5167;52.164;10.530;2022-09-03T04:20:52;16.60;5.00
10245;DHT22;5167;52.164;10.530;2022-09-03T04:23:17;16.50;5.00
10245;DHT22;5167;52.164;10.530;2022-09-03T04:25:43;16.50;5.00
10245;DHT22;5167;52.164;10.530;2022-09-03T04:28:09;16.50;5.00
10245;DHT22;5167;52.164;10.530;2022-09-03T04:30:36;16.50;5.00
10245;DHT22;5167;52.164;10.530;2022-09-03T04:33:02;16.40;5.00
10245;DHT22;5167;52.164;10.530;2022-09-03T04:35:27;16.40;5.00
10245;DHT22;5167;52.164;10.530;2022-09-03T04:37:56;16.40;5.00
10245;DHT22;5167;52.164;10.530;2022-09-03T04:40:22;16.40;5.00
10245;DHT22;5167;52.164;10.530;2022-09-03T04:42:48;16.40;5.00
10245;DHT22;5167;52.164;10.530;2022-09-03T04:45:13;16.40;5.00
10245;DHT22;5167;52.164;10.530;2022-09-03T04:47:43;16.30;5.00
10245;DHT22;5167;52.164;10.530;2022-09-03T04:50:11;16.30;5.00
10245;DHT22;5167;52.164;10.530;2022-09-03T04:52:37;16.30;5.00
10245;DHT22;5167;52.164;10.530;2022-09-03T04:55:03;16.30;5.00
10245;DHT22;5167;52.164;10.530;2022-09-03T04:57:29;16.30;5.00
10245;DHT22;5167;52.164;10.530;2022-09-03T05:00:03;16.20;5.00
10245;DHT22;5167;52.164;10.530;2022-09-03T05:02:28;16.20;5.00
10245;DHT22;5167;52.164;10.530;2022-09-03T05:04:54;16.20;5.00
10245;DHT22;5167;52.164;10.530;2022-09-03T05:07:20;16.20;5.00
10245;DHT22;5167;52.164;10.530;2022-09-03T05:09:45;16.30;5.00
10245;DHT22;5167;52.164;10.530;2022-09-03T05:12:11;16.20;5.00
10245;DHT22;5167;52.164;10.530;2022-09-03T05:14:37;16.20;5.00
10245;DHT22;5167;52.164;10.530;2022-09-03T05:17:03;16.30;5.00
10245;DHT22;5167;52.164;10.530;2022-09-03T05:19:29;16.20;5.00
10245;DHT22;5167;52.164;10.530;2022-09-03T05:21:55;16.20;5.00
10245;DHT22;5167;52.164;10.530;2022-09-03T05:24:21;16.20;5.00
10245;DHT22;5167;52.164;10.530;2022-09-03T05:26:47;16.30;5.00
10245;DHT22;5167;52.164;10.530;2022-09-03T05:29:13;16.30;5.00
10245;DHT22;5167;52.164;10.530;2022-09-03T05:31:40;16.30;5.00
10245;DHT22;5167;52.164;10.530;2022-09-03T05:34:06;16.30;5.00
10245;DHT22;5167;52.164;10.530;2022-09-03T05:36:34;16.40;5.00
10245;DHT22;5167;52.164;10.530;2022-09-03T05:39:00;16.40;5.00
10245;DHT22;5167;52.164;10.530;2022-09-03T05:41:26;16.40;5.00
10245;DHT22;5167;52.164;10.530;2022-09-03T05:43:54;16.50;5.00
10245;DHT22;5167;52.164;10.530;2022-09-03T05:46:22;16.50;5.00
10245;DHT22;5167;52.164;10.530;2022-09-03T05:48:54;16.50;5.00
10245;DHT22;5167;52.164;10.530;2022-09-03T05:51:20;16.60;5.00
10245;DHT22;5167;52.164;10.530;2022-09-03T05:53:47;16.60;5.00
10245;DHT22;5167;52.164;10.530;2022-09-03T05:56:21;16.80;5.00
10245;DHT22;5167;52.164;10.530;2022-09-03T05:58:51;16.80;5.00
10245;DHT22;5167;52.164;10.530;2022-09-03T06:01:24;16.90;5.00
10245;DHT22;5167;52.164;10.530;2022-09-03T06:06:20;16.90;5.00
10245;DHT22;5167;52.164;10.530;2022-09-03T06:08:53;17.00;5.00
10245;DHT22;5167;52.164;10.530;2022-09-03T06:11:20;17.00;5.00
10245;DHT22;5167;52.164;10.530;2022-09-03T06:13:47;17.10;5.00
10245;DHT22;5167;52.164;10.530;2022-09-03T06:16:13;17.10;5.00
10245;DHT22;5167;52.164;10.530;2022-09-03T06:18:39;17.10;5.00
10245;DHT22;5167;52.164;10.530;2022-09-03T06:21:06;17.10;5.00
10245;DHT22;5167;52.164;10.530;2022-09-03T06:23:34;17.20;5.00
10245;DHT22;5167;52.164;10.530;2022-09-03T06:28:25;17.30;5.00
10245;DHT22;5167;52.164;10.530;2022-09-03T06:30:52;17.40;5.00
10245;DHT22;5167;52.164;10.530;2022-09-03T06:33:17;17.50;5.00
10245;DHT22;5167;52.164;10.530;2022-09-03T06:35:43;17.50;5.00
10245;DHT22;5167;52.164;10.530;2022-09-03T06:38:09;17.60;5.00
10245;DHT22;5167;52.164;10.530;2022-09-03T06:40:38;17.70;5.00
10245;DHT22;5167;52.164;10.530;2022-09-03T06:43:03;17.80;5.00
10245;DHT22;5167;52.164;10.530;2022-09-03T06:45:30;17.80;5.00
10245;DHT22;5167;52.164;10.530;2022-09-03T06:47:56;17.90;5.00
10245;DHT22;5167;52.164;10.530;2022-09-03T06:50:22;18.00;5.00
10245;DHT22;5167;52.164;10.530;2022-09-03T06:52:52;18.20;5.00
10245;DHT22;5167;52.164;10.530;2022-09-03T06:55:21;18.30;5.00
10245;DHT22;5167;52.164;10.530;2022-09-03T06:57:47;18.50;5.00
10245;DHT22;5167;52.164;10.530;2022-09-03T07:00:14;18.50;5.00
10245;DHT22;5167;52.164;10.530;2022-09-03T07:02:40;18.70;5.00
10245;DHT22;5167;52.164;10.530;2022-09-03T07:05:06;18.80;5.00
10245;DHT22;5167;52.164;10.530;2022-09-03T07:07:32;18.90;5.00
10245;DHT22;5167;52.164;10.530;2022-09-03T07:09:58;19.10;5.00
10245;DHT22;5167;52.164;10.530;2022-09-03T07:12:24;19.20;5.00
10245;DHT22;5167;52.164;10.530;2022-09-03T07:14:49;19.50;5.00
10245;DHT22;5167;52.164;10.530;2022-09-03T07:17:15;19.60;5.00
10245;DHT22;5167;52.164;10.530;2022-09-03T07:19:41;19.70;5.00
10245;DHT22;5167;52.164;10.530;2022-09-03T07:22:06;19.80;5.00
10245;DHT22;5167;52.164;10.530;2022-09-03T07:24:33;19.90;5.00
10245;DHT22;5167;52.164;10.530;2022-09-03T07:27:00;20.10;5.00
10245;DHT22;5167;52.164;10.530;2022-09-03T07:29:26;20.10;5.00
10245;DHT22;5167;52.164;10.530;2022-09-03T07:31:52;20.30;5.00
10245;DHT22;5167;52.164;10.530;2022-09-03T07:34:18;20.40;5.00
10245;DHT22;5167;52.164;10.530;2022-09-03T07:36:45;20.50;5.00
10245;DHT22;5167;52.164;10.530;2022-09-03T07:39:13;20.50;5.00
10245;DHT22;5167;52.164;10.530;2022-09-03T07:41:40;20.70;5.00
10245;DHT22;5167;52.164;10.530;2022-09-03T07:44:12;20.80;5.00
10245;DHT22;5167;52.164;10.530;2022-09-03T07:46:39;21.00;5.00
10245;DHT22;5167;52.164;10.530;2022-09-03T07:49:06;21.00;5.00
10245;DHT22;5167;52.164;10.530;2022-09-03T07:51:34;21.10;5.00
10245;DHT22;5167;52.164;10.530;2022-09-03T07:54:01;21.20;5.00
10245;DHT22;5167;52.164;10.530;2022-09-03T07:56:28;21.30;5.00
10245;DHT22;5167;52.164;10.530;2022-09-03T07:58:56;21.40;5.00
10245;DHT22;5167;52.164;10.530;2022-09-03T08:01:23;21.40;5.00
10245;DHT22;5167;52.164;10.530;2022-09-03T08:03:50;21.50;5.00
10245;DHT22;5167;52.164;10.530;2022-09-03T08:06:18;21.60;5.00
10245;DHT22;5167;52.164;10.530;2022-09-03T08:08:43;21.70;5.00
10245;DHT22;5167;52.164;10.530;2022-09-03T08:11:17;21.80;5.00
10245;DHT22;5167;52.164;10.530;2022-09-03T08:13:46;21.90;5.00
10245;DHT22;5167;52.164;10.530;2022-09-03T08:16:15;22.00;5.00
10245;DHT22;5167;52.164;10.530;2022-09-03T08:18:41;22.10;5.00
10245;DHT22;5167;52.164;10.530;2022-09-03T08:21:15;22.20;5.00
10245;DHT22;5167;52.164;10.530;2022-09-03T08:23:46;22.40;5.00
10245;DHT22;5167;52.164;10.530;2022-09-03T08:26:13;22.50;5.00
10245;DHT22;5167;52.164;10.530;2022-09-03T08:28:40;22.60;5.00
10245;DHT22;5167;52.164;10.530;2022-09-03T08:31:10;22.70;5.00
10245;DHT22;5167;52.164;10.530;2022-09-03T08:33:37;22.80;5.00
10245;DHT22;5167;52.164;10.530;2022-09-03T08:36:05;22.90;5.00
10245;DHT22;5167;52.164;10.530;2022-09-03T08:38:35;23.00;5.00
10245;DHT22;5167;52.164;10.530;2022-09-03T08:52:37;23.40;5.00
10245;DHT22;5167;52.164;10.530;2022-09-03T08:58:14;23.60;5.00
10245;DHT22;5167;52.164;10.530;2022-09-03T09:03:29;23.80;5.00
10245;DHT22;5167;52.164;10.530;2022-09-03T09:06:00;23.90;5.00
10245;DHT22;5167;52.164;10.530;2022-09-03T09:11:44;24.20;5.00
10245;DHT22;5167;52.164;10.530;2022-09-03T09:16:55;24.40;5.00
10245;DHT22;5167;52.164;10.530;2022-09-03T09:22:28;24.70;5.00
10245;DHT22;5167;52.164;10.530;2022-09-03T09:24:58;24.90;5.00
10245;DHT22;5167;52.164;10.530;2022-09-03T09:27:25;25.00;5.00
10245;DHT22;5167;52.164;10.530;2022-09-03T09:29:51;25.10;5.00
10245;DHT22;5167;52.164;10.530;2022-09-03T09:32:19;25.20;5.00
10245;DHT22;5167;52.164;10.530;2022-09-03T09:34:45;25.30;5.00
10245;DHT22;5167;52.164;10.530;2022-09-03T09:37:13;25.40;5.00
10245;DHT22;5167;52.164;10.530;2022-09-03T09:39:40;25.50;5.00
10245;DHT22;5167;52.164;10.530;2022-09-03T09:42:08;25.60;5.00
10245;DHT22;5167;52.164;10.530;2022-09-03T09:44:41;25.70;5.00
10245;DHT22;5167;52.164;10.530;2022-09-03T09:47:28;25.80;5.00
10245;DHT22;5167;52.164;10.530;2022-09-03T09:50:00;25.80;5.00
10245;DHT22;5167;52.164;10.530;2022-09-03T09:52:30;25.90;5.00
10245;DHT22;5167;52.164;10.530;2022-09-03T09:55:16;25.90;5.00
10245;DHT22;5167;52.164;10.530;2022-09-03T09:57:43;26.00;5.00
10245;DHT22;5167;52.164;10.530;2022-09-03T10:00:14;26.10;5.00
10245;DHT22;5167;52.164;10.530;2022-09-03T10:02:47;26.20;5.00
10245;DHT22;5167;52.164;10.530;2022-09-03T10:05:25;26.40;5.00
10245;DHT22;5167;52.164;10.530;2022-09-03T10:08:00;26.30;5.00
10245;DHT22;5167;52.164;10.530;2022-09-03T10:10:27;26.40;5.00
10245;DHT22;5167;52.164;10.530;2022-09-03T10:13:00;26.40;5.00
10245;DHT22;5167;52.164;10.530;2022-09-03T10:15:46;26.40;5.00
10245;DHT22;5167;52.164;10.530;2022-09-03T10:26:24;26.20;5.00
10245;DHT22;5167;52.164;10.530;2022-09-03T10:29:00;26.20;5.00
10245;DHT22;5167;52.164;10.530;2022-09-03T10:34:18;26.30;5.00
10245;DHT22;5167;52.164;10.530;2022-09-03T10:51:04;26.30;5.00
10245;DHT22;5167;52.164;10.530;2022-09-03T10:58:53;26.30;5.00
10245;DHT22;5167;52.164;10.530;2022-09-03T11:06:54;26.20;5.00
10245;DHT22;5167;52.164;10.530;2022-09-03T11:09:45;26.20;5.00
10245;DHT22;5167;52.164;10.530;2022-09-03T11:12:22;26.20;5.00
10245;DHT22;5167;52.164;10.530;2022-09-03T11:14:57;26.20;5.00
10245;DHT22;5167;52.164;10.530;2022-09-03T11:17:28;26.30;5.00
10245;DHT22;5167;52.164;10.530;2022-09-03T11:20:03;26.40;5.00
10245;DHT22;5167;52.164;10.530;2022-09-03T11:22:33;26.40;5.00
10245;DHT22;5167;52.164;10.530;2022-09-03T11:24:59;26.40;5.00
10245;DHT22;5167;52.164;10.530;2022-09-03T11:27:36;26.50;5.00
10245;DHT22;5167;52.164;10.530;2022-09-03T11:30:21;26.50;5.00
10245;DHT22;5167;52.164;10.530;2022-09-03T11:32:54;26.40;5.00
10245;DHT22;5167;52.164;10.530;2022-09-03T11:38:02;26.30;5.00
10245;DHT22;5167;52.164;10.530;2022-09-03T11:40:42;26.20;5.00
10245;DHT22;5167;52.164;10.530;2022-09-03T11:48:44;26.00;5.00
10245;DHT22;5167;52.164;10.530;2022-09-03T11:54:26;25.90;5.00
10245;DHT22;5167;52.164;10.530;2022-09-03T11:57:04;25.80;5.00
10245;DHT22;5167;52.164;10.530;2022-09-03T11:59:33;25.80;5.00
10245;DHT22;5167;52.164;10.530;2022-09-03T12:02:15;25.80;5.00
10245;DHT22;5167;52.164;10.530;2022-09-03T12:07:49;25.80;5.00
10245;DHT22;5167;52.164;10.530;2022-09-03T12:18:35;25.90;5.00
10245;DHT22;5167;52.164;10.530;2022-09-03T12:21:03;26.00;5.00
10245;DHT22;5167;52.164;10.530;2022-09-03T12:23:49;25.90;5.00
10245;DHT22;5167;52.164;10.530;2022-09-03T12:26:23;25.90;5.00
10245;DHT22;5167;52.164;10.530;2022-09-03T12:28:52;25.90;5.00
10245;DHT22;5167;52.164;10.530;2022-09-03T12:31:24;25.90;5.00
10245;DHT22;5167;52.164;10.530;2022-09-03T12:36:19;25.80;5.00
10245;DHT22;5167;52.164;10.530;2022-09-03T12:38:45;25.70;5.00
10245;DHT22;5167;52.164;10.530;2022-09-03T12:43:53;25.70;5.00
10245;DHT22;5167;52.164;10.530;2022-09-03T12:46:22;25.70;5.00
10245;DHT22;5167;52.164;10.530;2022-09-03T12:48:56;25.70;5.00
10245;DHT22;5167;52.164;10.530;2022-09-03T12:51:22;25.70;5.00
10245;DHT22;5167;52.164;10.530;2022-09-03T12:53:49;25.70;5.00
10245;DHT22;5167;52.164;10.530;2022-09-03T12:56:16;25.60;5.00
10245;DHT22;5167;52.164;10.530;2022-09-03T13:01:17;25.60;5.00
10245;DHT22;5167;52.164;10.530;2022-09-03T13:04:04;25.70;5.00
10245;DHT22;5167;52.164;10.530;2022-09-03T13:07:01;25.60;5.00
10245;DHT22;5167;52.164;10.530;2022-09-03T13:09:29;25.60;5.00
10245;DHT22;5167;52.164;10.530;2022-09-03T13:11:56;25.60;5.00
10245;DHT22;5167;52.164;10.530;2022-09-03T13:14:25;25.60;5.00
10245;DHT22;5167;52.164;10.530;2022-09-03T13:22:07;25.60;5.00
10245;DHT22;5167;52.164;10.530;2022-09-03T13:30:13;25.50;5.00
10245;DHT22;5167;52.164;10.530;2022-09-03T13:35:46;25.40;5.00
10245;DHT22;5167;52.164;10.530;2022-09-03T13:38:36;25.40;5.00
10245;DHT22;5167;52.164;10.530;2022-09-03T13:43:56;25.50;5.00
10245;DHT22;5167;52.164;10.530;2022-09-03T13:52:02;25.50;5.00
10245;DHT22;5167;52.164;10.530;2022-09-03T13:54:33;25.50;5.00
10245;DHT22;5167;52.164;10.530;2022-09-03T13:57:31;25.50;5.00
10245;DHT22;5167;52.164;10.530;2022-09-03T14:00:09;25.50;5.00
10245;DHT22;5167;52.164;10.530;2022-09-03T14:07:51;25.40;5.00
10245;DHT22;5167;52.164;10.530;2022-09-03T14:10:23;25.50;5.00
10245;DHT22;5167;52.164;10.530;2022-09-03T14:15:51;25.40;5.00
10245;DHT22;5167;52.164;10.530;2022-09-03T14:18:35;25.50;5.00
10245;DHT22;5167;52.164;10.530;2022-09-03T14:21:18;25.50;5.00
10245;DHT22;5167;52.164;10.530;2022-09-03T14:23:58;25.40;5.00
10245;DHT22;5167;52.164;10.530;2022-09-03T14:26:30;25.50;5.00
10245;DHT22;5167;52.164;10.530;2022-09-03T14:34:50;25.40;5.00
10245;DHT22;5167;52.164;10.530;2022-09-03T14:40:33;25.40;5.00
10245;DHT22;5167;52.164;10.530;2022-09-03T14:45:52;25.30;5.00
10245;DHT22;5167;52.164;10.530;2022-09-03T14:51:33;25.30;5.00
10245;DHT22;5167;52.164;10.530;2022-09-03T15:05:20;25.30;5.00
10245;DHT22;5167;52.164;10.530;2022-09-03T15:07:59;25.20;5.00
10245;DHT22;5167;52.164;10.530;2022-09-03T15:10:36;25.20;5.00
10245;DHT22;5167;52.164;10.530;2022-09-03T15:13:15;25.30;5.00
10245;DHT22;5167;52.164;10.530;2022-09-03T15:18:29;25.30;5.00
10245;DHT22;5167;52.164;10.530;2022-09-03T15:23:55;25.30;5.00
10245;DHT22;5167;52.164;10.530;2022-09-03T15:38:02;25.10;5.00
10245;DHT22;5167;52.164;10.530;2022-09-03T15:40:50;25.20;5.00
10245;DHT22;5167;52.164;10.530;2022-09-03T15:43:26;25.10;5.00
10245;DHT22;5167;52.164;10.530;2022-09-03T15:54:01;25.10;5.00
10245;DHT22;5167;52.164;10.530;2022-09-03T16:01:51;25.10;5.00
10245;DHT22;5167;52.164;10.530;2022-09-03T16:07:09;25.00;5.00
10245;DHT22;5167;52.164;10.530;2022-09-03T16:15:25;25.00;5.00
10245;DHT22;5167;52.164;10.530;2022-09-03T16:23:38;24.90;5.00
10245;DHT22;5167;52.164;10.530;2022-09-03T16:28:53;25.00;5.00
10245;DHT22;5167;52.164;10.530;2022-09-03T16:37:27;24.80;5.00
10245;DHT22;5167;52.164;10.530;2022-09-03T16:40:20;24.80;5.00
10245;DHT22;5167;52.164;10.530;2022-09-03T16:46:02;24.80;5.00
10245;DHT22;5167;52.164;10.530;2022-09-03T16:51:27;24.80;5.00
10245;DHT22;5167;52.164;10.530;2022-09-03T16:57:07;24.70;5.00
10245;DHT22;5167;52.164;10.530;2022-09-03T16:59:48;24.80;5.00
10245;DHT22;5167;52.164;10.530;2022-09-03T17:10:47;24.70;5.00
10245;DHT22;5167;52.164;10.530;2022-09-03T17:16:07;24.60;5.00
10245;DHT22;5167;52.164;10.530;2022-09-03T17:18:50;24.50;5.00
10245;DHT22;5167;52.164;10.530;2022-09-03T17:21:49;24.50;5.00
10245;DHT22;5167;52.164;10.530;2022-09-03T17:27:11;24.40;5.00
10245;DHT22;5167;52.164;10.530;2022-09-03T17:29:54;24.40;5.00
10245;DHT22;5167;52.164;10.530;2022-09-03T17:35:37;24.30;5.00
10245;DHT22;5167;52.164;10.530;2022-09-03T17:41:54;24.20;5.00
10245;DHT22;5167;52.164;10.530;2022-09-03T17:49:33;24.10;5.00
10245;DHT22;5167;52.164;10.530;2022-09-03T17:52:40;24.00;5.00
10245;DHT22;5167;52.164;10.530;2022-09-03T17:58:04;23.90;5.00
10245;DHT22;5167;52.164;10.530;2022-09-03T18:08:21;23.80;5.00
10245;DHT22;5167;52.164;10.530;2022-09-03T18:14:14;23.70;5.00
10245;DHT22;5167;52.164;10.530;2022-09-03T18:19:38;23.50;5.00
10245;DHT22;5167;52.164;10.530;2022-09-03T18:22:30;23.50;5.00
10245;DHT22;5167;52.164;10.530;2022-09-03T18:25:16;23.50;5.00
10245;DHT22;5167;52.164;10.530;2022-09-03T18:28:06;23.40;5.00
10245;DHT22;5167;52.164;10.530;2022-09-03T18:30:52;23.30;5.00
10245;DHT22;5167;52.164;10.530;2022-09-03T18:33:37;23.20;5.00
10245;DHT22;5167;52.164;10.530;2022-09-03T18:36:21;23.30;5.00
10245;DHT22;5167;52.164;10.530;2022-09-03T18:39:25;23.20;5.00
10245;DHT22;5167;52.164;10.530;2022-09-03T18:42:48;23.10;5.00
10245;DHT22;5167;52.164;10.530;2022-09-03T18:45:37;23.00;5.00
10245;DHT22;5167;52.164;10.530;2022-09-03T18:52:43;22.90;5.00
10245;DHT22;5167;52.164;10.530;2022-09-03T18:58:27;22.80;5.00
10245;DHT22;5167;52.164;10.530;2022-09-03T19:04:19;22.60;5.00
10245;DHT22;5167;52.164;10.530;2022-09-03T19:07:10;22.50;5.00
10245;DHT22;5167;52.164;10.530;2022-09-03T19:10:04;22.40;5.00
10245;DHT22;5167;52.164;10.530;2022-09-03T19:15:56;22.30;5.00
10245;DHT22;5167;52.164;10.530;2022-09-03T19:21:50;22.20;5.00
10245;DHT22;5167;52.164;10.530;2022-09-03T19:24:35;22.10;5.00
10245;DHT22;5167;52.164;10.530;2022-09-03T19:36:29;21.90;5.00
10245;DHT22;5167;52.164;10.530;2022-09-03T19:51:34;21.60;5.00
10245;DHT22;5167;52.164;10.530;2022-09-03T19:54:23;21.60;5.00
10245;DHT22;5167;52.164;10.530;2022-09-03T19:57:10;21.50;5.00
10245;DHT22;5167;52.164;10.530;2022-09-03T19:59:57;21.60;5.00
10245;DHT22;5167;52.164;10.530;2022-09-03T20:02:45;21.50;5.00
10245;DHT22;5167;52.164;10.530;2022-09-03T20:05:31;21.50;5.00
10245;DHT22;5167;52.164;10.530;2022-09-03T20:08:16;21.60;5.00
10245;DHT22;5167;52.164;10.530;2022-09-03T20:11:03;21.50;5.00
10245;DHT22;5167;52.164;10.530;2022-09-03T20:13:30;21.50;5.00
10245;DHT22;5167;52.164;10.530;2022-09-03T20:16:20;21.50;5.00
10245;DHT22;5167;52.164;10.530;2022-09-03T20:18:51;21.50;5.00
10245;DHT22;5167;52.164;10.530;2022-09-03T20:21:42;21.40;5.00
10245;DHT22;5167;52.164;10.530;2022-09-03T20:37:43;21.30;5.00
10245;DHT22;5167;52.164;10.530;2022-09-03T20:40:20;21.20;5.00
10245;DHT22;5167;52.164;10.530;2022-09-03T20:48:30;21.10;5.00
10245;DHT22;5167;52.164;10.530;2022-09-03T20:51:08;21.20;5.00
10245;DHT22;5167;52.164;10.530;2022-09-03T21:01:51;21.10;5.00
10245;DHT22;5167;52.164;10.530;2022-09-03T21:04:46;21.00;5.00
10245;DHT22;5167;52.164;10.530;2022-09-03T21:07:28;21.00;5.00
10245;DHT22;5167;52.164;10.530;2022-09-03T21:10:07;21.00;5.00
10245;DHT22;5167;52.164;10.530;2022-09-03T21:16:08;20.90;5.00
10245;DHT22;5167;52.164;10.530;2022-09-03T21:27:14;20.90;5.00
10245;DHT22;5167;52.164;10.530;2022-09-03T21:29:48;20.90;5.00
10245;DHT22;5167;52.164;10.530;2022-09-03T21:32:20;20.90;5.00
10245;DHT22;5167;52.164;10.530;2022-09-03T21:40:34;20.70;5.00
10245;DHT22;5167;52.164;10.530;2022-09-03T21:43:16;20.70;5.00
10245;DHT22;5167;52.164;10.530;2022-09-03T21:48:39;20.50;5.00
10245;DHT22;5167;52.164;10.530;2022-09-03T21:51:17;20.40;5.00
10245;DHT22;5167;52.164;10.530;2022-09-03T21:53:58;20.40;5.00
10245;DHT22;5167;52.164;10.530;2022-09-03T22:04:50;20.20;5.00
10245;DHT22;5167;52.164;10.530;2022-09-03T22:10:33;20.10;5.00
10245;DHT22;5167;52.164;10.530;2022-09-03T22:13:06;20.10;5.00
10245;DHT22;5167;52.164;10.530;2022-09-03T22:15:36;20.10;5.00
10245;DHT22;5167;52.164;10.530;2022-09-03T22:20:58;20.00;5.00
10245;DHT22;5167;52.164;10.530;2022-09-03T22:23:55;20.00;5.00
10245;DHT22;5167;52.164;10.530;2022-09-03T22:26:44;19.90;5.00
10245;DHT22;5167;52.164;10.530;2022-09-03T22:40:10;19.70;5.00
10245;DHT22;5167;52.164;10.530;2022-09-03T22:43:15;19.70;5.00
10245;DHT22;5167;52.164;10.530;2022-09-03T22:46:05;19.70;5.00
10245;DHT22;5167;52.164;10.530;2022-09-03T22:51:59;19.80;5.00
10245;DHT22;5167;52.164;10.530;2022-09-03T22:56:56;19.50;5.00
10245;DHT22;5167;52.164;10.530;2022-09-03T22:59:37;19.50;5.00
10245;DHT22;5167;52.164;10.530;2022-09-03T23:07:30;19.40;5.00
10245;DHT22;5167;52.164;10.530;2022-09-03T23:10:09;19.40;5.00
10245;DHT22;5167;52.164;10.530;2022-09-03T23:12:43;19.40;5.00
10245;DHT22;5167;52.164;10.530;2022-09-03T23:15:13;19.30;5.00
10245;DHT22;5167;52.164;10.530;2022-09-03T23:17:45;19.30;5.00
10245;DHT22;5167;52.164;10.530;2022-09-03T23:20:18;19.30;5.00
10245;DHT22;5167;52.164;10.530;2022-09-03T23:23:37;19.20;5.00
10245;DHT22;5167;52.164;10.530;2022-09-03T23:25:55;19.20;5.00
10245;DHT22;5167;52.164;10.530;2022-09-03T23:28:35;19.20;5.00
10245;DHT22;5167;52.164;10.530;2022-09-03T23:33:42;19.10;5.00
10245;DHT22;5167;52.164;10.530;2022-09-03T23:36:24;19.10;5.00
10245;DHT22;5167;52.164;10.530;2022-09-03T23:39:17;19.00;5.00